sensor_id;sensor_type;location;lat;lon;timestamp;temperature;humidity
27803;DHT22;15182;48.174;11.562;2023-06-10T00:01:06;24.80;66.50
27803;DHT22;15182;48.174;11.562;2023-06-10T00:03:33;24.80;66.60
27803;DHT22;15182;48.174;11.562;2023-06-10T00:06:02;24.80;66.90
27803;DHT22;15182;48.174;11.562;2023-06-10T00:08:30;24.70;66.90
27803;DHT22;15182;48.174;11.562;2023-06-10T00:11:00;24.70;67.00
27803;DHT22;15182;48.174;11.562;2023-06-10T00:13:28;24.70;67.30
27803;DHT22;15182;48.174;11.562;2023-06-10T00:15:56;24.60;68.10
27803;DHT22;15182;48.174;11.562;2023-06-10T00:18:24;24.60;67.30
27803;DHT22;15182;48.174;11.562;2023-06-10T00:20:53;24.60;68.40
27803;DHT22;15182;48.174;11.562;2023-06-10T00:23:21;24.50;67.60
27803;DHT22;15182;48.174;11.562;2023-06-10T00:25:51;24.50;67.70
27803;DHT22;15182;48.174;11.562;2023-06-10T00:28:20;24.50;67.80
27803;DHT22;15182;48.174;11.562;2023-06-10T00:30:48;24.40;68.10
27803;DHT22;15182;48.174;11.562;2023-06-10T00:33:16;24.40;68.20
27803;DHT22;15182;48.174;11.562;2023-06-10T00:35:44;24.40;68.30
27803;DHT22;15182;48.174;11.562;2023-06-10T00:38:13;24.30;68.30
27803;DHT22;15182;48.174;11.562;2023-06-10T00:40:43;24.30;68.60
27803;DHT22;15182;48.174;11.562;2023-06-10T00:43:11;24.20;68.80
27803;DHT22;15182;48.174;11.562;2023-06-10T00:45:40;24.20;69.00
27803;DHT22;15182;48.174;11.562;2023-06-10T00:48:08;24.10;69.20
27803;DHT22;15182;48.174;11.562;2023-06-10T00:50:36;24.10;70.10
27803;DHT22;15182;48.174;11.562;2023-06-10T00:53:06;24.10;69.30
27803;DHT22;15182;48.174;11.562;2023-06-10T00:55:34;24.00;69.50
27803;DHT22;15182;48.174;11.562;2023-06-10T00:58:03;24.00;69.70
27803;DHT22;15182;48.174;11.562;2023-06-10T01:00:32;24.00;69.80
27803;DHT22;15182;48.174;11.562;2023-06-10T01:03:03;23.90;69.80
27803;DHT22;15182;48.174;11.562;2023-06-10T01:05:34;23.90;71.00
27803;DHT22;15182;48.174;11.562;2023-06-10T01:08:07;23.90;70.20
27803;DHT22;15182;48.174;11.562;2023-06-10T01:10:40;23.90;70.30
27803;DHT22;15182;48.174;11.562;2023-06-10T01:13:12;23.90;70.40
27803;DHT22;15182;48.174;11.562;2023-06-10T01:15:41;23.80;70.60
27803;DHT22;15182;48.174;11.562;2023-06-10T01:18:10;23.80;71.60
27803;DHT22;15182;48.174;11.562;2023-06-10T01:20:43;23.80;70.80
27803;DHT22;15182;48.174;11.562;2023-06-10T01:23:14;23.80;71.70
27803;DHT22;15182;48.174;11.562;2023-06-10T01:25:47;23.70;70.90
27803;DHT22;15182;48.174;11.562;2023-06-10T01:28:27;23.70;71.10
27803;DHT22;15182;48.174;11.562;2023-06-10T01:31:07;23.70;71.40
27803;DHT22;15182;48.174;11.562;2023-06-10T01:33:41;23.60;71.50
27803;DHT22;15182;48.174;11.562;2023-06-10T01:36:10;23.60;71.50
27803;DHT22;15182;48.174;11.562;2023-06-10T01:38:43;23.60;71.50
27803;DHT22;15182;48.174;11.562;2023-06-10T01:41:13;23.60;72.00
27803;DHT22;15182;48.174;11.562;2023-06-10T01:43:45;23.50;71.90
27803;DHT22;15182;48.174;11.562;2023-06-10T01:46:14;23.50;72.00
27803;DHT22;15182;48.174;11.562;2023-06-10T01:48:46;23.50;72.00
27803;DHT22;15182;48.174;11.562;2023-06-10T01:51:15;23.50;72.00
27803;DHT22;15182;48.174;11.562;2023-06-10T01:53:45;23.50;73.00
27803;DHT22;15182;48.174;11.562;2023-06-10T01:56:13;23.50;72.30
27803;DHT22;15182;48.174;11.562;2023-06-10T01:58:44;23.50;72.40
27803;DHT22;15182;48.174;11.562;2023-06-10T02:01:12;23.40;72.50
27803;DHT22;15182;48.174;11.562;2023-06-10T02:03:40;23.40;72.60
27803;DHT22;15182;48.174;11.562;2023-06-10T02:06:09;23.40;72.70
27803;DHT22;15182;48.174;11.562;2023-06-10T02:08:36;23.40;72.80
27803;DHT22;15182;48.174;11.562;2023-06-10T02:11:06;23.40;72.90
27803;DHT22;15182;48.174;11.562;2023-06-10T02:13:34;23.40;73.00
27803;DHT22;15182;48.174;11.562;2023-06-10T02:16:02;23.40;73.00
27803;DHT22;15182;48.174;11.562;2023-06-10T02:18:29;23.40;73.00
27803;DHT22;15182;48.174;11.562;2023-06-10T02:20:57;23.40;73.20
27803;DHT22;15182;48.174;11.562;2023-06-10T02:23:26;23.40;73.30
27803;DHT22;15182;48.174;11.562;2023-06-10T02:25:54;23.40;73.30
27803;DHT22;15182;48.174;11.562;2023-06-10T02:28:23;23.30;73.40
27803;DHT22;15182;48.174;11.562;2023-06-10T02:30:51;23.30;73.70
27803;DHT22;15182;48.174;11.562;2023-06-10T02:33:21;23.30;73.70
27803;DHT22;15182;48.174;11.562;2023-06-10T02:35:50;23.30;74.50
27803;DHT22;15182;48.174;11.562;2023-06-10T02:38:18;23.30;74.30
27803;DHT22;15182;48.174;11.562;2023-06-10T02:40:47;23.30;73.80
27803;DHT22;15182;48.174;11.562;2023-06-10T02:43:15;23.30;73.90
27803;DHT22;15182;48.174;11.562;2023-06-10T02:45:45;23.20;73.90
27803;DHT22;15182;48.174;11.562;2023-06-10T02:48:14;23.20;74.10
27803;DHT22;15182;48.174;11.562;2023-06-10T02:50:42;23.20;74.10
27803;DHT22;15182;48.174;11.562;2023-06-10T02:53:17;23.20;74.30
27803;DHT22;15182;48.174;11.562;2023-06-10T02:55:50;23.20;74.40
27803;DHT22;15182;48.174;11.562;2023-06-10T02:58:20;23.10;74.30
27803;DHT22;15182;48.174;11.562;2023-06-10T03:00:50;23.10;74.40
27803;DHT22;15182;48.174;11.562;2023-06-10T03:03:18;23.10;74.70
27803;DHT22;15182;48.174;11.562;2023-06-10T03:05:55;23.10;74.70
27803;DHT22;15182;48.174;11.562;2023-06-10T03:08:25;23.00;74.70
27803;DHT22;15182;48.174;11.562;2023-06-10T03:10:54;23.00;74.70
27803;DHT22;15182;48.174;11.562;2023-06-10T03:13:23;23.00;74.90
27803;DHT22;15182;48.174;11.562;2023-06-10T03:15:52;23.00;75.00
27803;DHT22;15182;48.174;11.562;2023-06-10T03:18:26;23.00;75.20
27803;DHT22;15182;48.174;11.562;2023-06-10T03:20:54;23.00;75.40
27803;DHT22;15182;48.174;11.562;2023-06-10T03:23:23;22.90;75.10
27803;DHT22;15182;48.174;11.562;2023-06-10T03:25:51;22.90;75.20
27803;DHT22;15182;48.174;11.562;2023-06-10T03:28:27;22.90;75.20
27803;DHT22;15182;48.174;11.562;2023-06-10T03:30:56;22.90;75.40
27803;DHT22;15182;48.174;11.562;2023-06-10T03:33:26;22.80;75.40
27803;DHT22;15182;48.174;11.562;2023-06-10T03:35:54;22.80;75.40
27803;DHT22;15182;48.174;11.562;2023-06-10T03:38:23;22.80;75.40
27803;DHT22;15182;48.174;11.562;2023-06-10T03:40:51;22.80;75.60
27803;DHT22;15182;48.174;11.562;2023-06-10T03:43:19;22.80;75.80
27803;DHT22;15182;48.174;11.562;2023-06-10T03:45:49;22.70;75.80
27803;DHT22;15182;48.174;11.562;2023-06-10T03:48:18;22.70;75.90
27803;DHT22;15182;48.174;11.562;2023-06-10T03:50:51;22.70;76.10
27803;DHT22;15182;48.174;11.562;2023-06-10T03:53:20;22.70;76.10
27803;DHT22;15182;48.174;11.562;2023-06-10T03:55:48;22.70;76.20
27803;DHT22;15182;48.174;11.562;2023-06-10T03:58:18;22.70;76.40
27803;DHT22;15182;48.174;11.562;2023-06-10T04:00:46;22.60;76.40
27803;DHT22;15182;48.174;11.562;2023-06-10T04:03:15;22.60;76.50
27803;DHT22;15182;48.174;11.562;2023-06-10T04:05:48;22.60;77.40
27803;DHT22;15182;48.174;11.562;2023-06-10T04:08:16;22.60;76.90
27803;DHT22;15182;48.174;11.562;2023-06-10T04:10:44;22.60;76.90
27803;DHT22;15182;48.174;11.562;2023-06-10T04:13:12;22.60;77.00
27803;DHT22;15182;48.174;11.562;2023-06-10T04:15:48;22.60;77.10
27803;DHT22;15182;48.174;11.562;2023-06-10T04:18:17;22.60;77.20
27803;DHT22;15182;48.174;11.562;2023-06-10T04:20:48;22.60;77.30
27803;DHT22;15182;48.174;11.562;2023-06-10T04:23:15;22.60;77.50
27803;DHT22;15182;48.174;11.562;2023-06-10T04:25:45;22.60;77.60
27803;DHT22;15182;48.174;11.562;2023-06-10T04:28:14;22.60;77.70
27803;DHT22;15182;48.174;11.562;2023-06-10T04:30:43;22.50;77.80
27803;DHT22;15182;48.174;11.562;2023-06-10T04:33:12;22.60;78.00
27803;DHT22;15182;48.174;11.562;2023-06-10T04:35:41;22.50;78.00
27803;DHT22;15182;48.174;11.562;2023-06-10T04:38:13;22.50;78.00
27803;DHT22;15182;48.174;11.562;2023-06-10T04:40:42;22.50;78.40
27803;DHT22;15182;48.174;11.562;2023-06-10T04:43:11;22.50;78.40
27803;DHT22;15182;48.174;11.562;2023-06-10T04:45:39;22.50;78.40
27803;DHT22;15182;48.174;11.562;2023-06-10T04:48:11;22.50;78.40
27803;DHT22;15182;48.174;11.562;2023-06-10T04:50:40;22.50;78.70
27803;DHT22;15182;48.174;11.562;2023-06-10T04:53:07;22.50;78.90
27803;DHT22;15182;48.174;11.562;2023-06-10T04:55:39;22.50;79.00
27803;DHT22;15182;48.174;11.562;2023-06-10T04:58:07;22.50;79.20
27803;DHT22;15182;48.174;11.562;2023-06-10T05:00:34;22.50;79.10
27803;DHT22;15182;48.174;11.562;2023-06-10T05:03:02;22.60;79.30
27803;DHT22;15182;48.174;11.562;2023-06-10T05:05:30;22.60;79.40
27803;DHT22;15182;48.174;11.562;2023-06-10T05:07:58;22.60;79.50
27803;DHT22;15182;48.174;11.562;2023-06-10T05:10:26;22.60;79.50
27803;DHT22;15182;48.174;11.562;2023-06-10T05:12:55;22.60;79.60
27803;DHT22;15182;48.174;11.562;2023-06-10T05:15:23;22.60;79.70
27803;DHT22;15182;48.174;11.562;2023-06-10T05:17:50;22.70;79.80
27803;DHT22;15182;48.174;11.562;2023-06-10T05:20:19;22.70;79.80
27803;DHT22;15182;48.174;11.562;2023-06-10T05:22:46;22.70;79.90
27803;DHT22;15182;48.174;11.562;2023-06-10T05:25:14;22.70;79.80
27803;DHT22;15182;48.174;11.562;2023-06-10T05:27:42;22.80;80.00
27803;DHT22;15182;48.174;11.562;2023-06-10T05:30:12;22.80;80.10
27803;DHT22;15182;48.174;11.562;2023-06-10T05:32:40;22.80;80.20
27803;DHT22;15182;48.174;11.562;2023-06-10T05:35:08;22.80;80.20
27803;DHT22;15182;48.174;11.562;2023-06-10T05:37:36;22.90;80.40
27803;DHT22;15182;48.174;11.562;2023-06-10T05:40:04;22.90;80.40
27803;DHT22;15182;48.174;11.562;2023-06-10T05:42:33;22.90;80.50
27803;DHT22;15182;48.174;11.562;2023-06-10T05:45:01;23.00;81.40
27803;DHT22;15182;48.174;11.562;2023-06-10T05:47:31;23.00;80.80
27803;DHT22;15182;48.174;11.562;2023-06-10T05:49:58;23.00;80.90
27803;DHT22;15182;48.174;11.562;2023-06-10T05:52:26;23.10;80.80
27803;DHT22;15182;48.174;11.562;2023-06-10T05:54:54;23.10;80.80
27803;DHT22;15182;48.174;11.562;2023-06-10T05:57:22;23.20;80.80
27803;DHT22;15182;48.174;11.562;2023-06-10T05:59:50;23.20;80.90
27803;DHT22;15182;48.174;11.562;2023-06-10T06:02:17;23.20;80.90
27803;DHT22;15182;48.174;11.562;2023-06-10T06:04:47;23.30;80.90
27803;DHT22;15182;48.174;11.562;2023-06-10T06:07:14;23.30;81.20
27803;DHT22;15182;48.174;11.562;2023-06-10T06:09:42;23.30;80.90
27803;DHT22;15182;48.174;11.562;2023-06-10T06:12:10;23.40;80.90
27803;DHT22;15182;48.174;11.562;2023-06-10T06:14:38;23.40;80.80
27803;DHT22;15182;48.174;11.562;2023-06-10T06:17:06;23.50;80.90
27803;DHT22;15182;48.174;11.562;2023-06-10T06:19:34;23.50;80.80
27803;DHT22;15182;48.174;11.562;2023-06-10T06:22:04;23.60;80.90
27803;DHT22;15182;48.174;11.562;2023-06-10T06:24:32;23.70;80.80
27803;DHT22;15182;48.174;11.562;2023-06-10T06:27:00;23.70;81.40
27803;DHT22;15182;48.174;11.562;2023-06-10T06:29:27;23.70;80.40
27803;DHT22;15182;48.174;11.562;2023-06-10T06:31:56;23.70;80.30
27803;DHT22;15182;48.174;11.562;2023-06-10T06:34:24;23.70;80.30
27803;DHT22;15182;48.174;11.562;2023-06-10T06:36:51;23.70;80.20
27803;DHT22;15182;48.174;11.562;2023-06-10T06:39:21;23.80;80.40
27803;DHT22;15182;48.174;11.562;2023-06-10T06:41:49;23.80;80.60
27803;DHT22;15182;48.174;11.562;2023-06-10T06:44:17;23.80;80.60
27803;DHT22;15182;48.174;11.562;2023-06-10T06:46:50;23.90;81.50
27803;DHT22;15182;48.174;11.562;2023-06-10T06:49:18;24.00;81.50
27803;DHT22;15182;48.174;11.562;2023-06-10T06:51:45;24.10;80.50
27803;DHT22;15182;48.174;11.562;2023-06-10T06:54:13;24.20;80.40
27803;DHT22;15182;48.174;11.562;2023-06-10T06:56:42;24.30;80.30
27803;DHT22;15182;48.174;11.562;2023-06-10T06:59:10;24.40;79.90
27803;DHT22;15182;48.174;11.562;2023-06-10T07:01:40;24.50;79.70
27803;DHT22;15182;48.174;11.562;2023-06-10T07:04:07;24.60;79.30
27803;DHT22;15182;48.174;11.562;2023-06-10T07:06:35;24.70;79.40
27803;DHT22;15182;48.174;11.562;2023-06-10T07:09:04;24.80;79.40
27803;DHT22;15182;48.174;11.562;2023-06-10T07:11:32;24.90;79.30
27803;DHT22;15182;48.174;11.562;2023-06-10T07:14:01;25.00;79.00
27803;DHT22;15182;48.174;11.562;2023-06-10T07:16:29;25.10;78.70
27803;DHT22;15182;48.174;11.562;2023-06-10T07:18:57;25.20;78.20
27803;DHT22;15182;48.174;11.562;2023-06-10T07:21:25;25.20;78.40
27803;DHT22;15182;48.174;11.562;2023-06-10T07:23:54;25.30;78.20
27803;DHT22;15182;48.174;11.562;2023-06-10T07:26:22;25.40;78.10
27803;DHT22;15182;48.174;11.562;2023-06-10T07:28:50;25.40;78.00
27803;DHT22;15182;48.174;11.562;2023-06-10T07:31:19;25.40;77.80
27803;DHT22;15182;48.174;11.562;2023-06-10T07:33:47;25.50;78.00
27803;DHT22;15182;48.174;11.562;2023-06-10T07:36:15;25.50;77.70
27803;DHT22;15182;48.174;11.562;2023-06-10T07:38:43;25.50;77.50
27803;DHT22;15182;48.174;11.562;2023-06-10T07:41:11;25.60;78.60
27803;DHT22;15182;48.174;11.562;2023-06-10T07:43:38;25.70;77.20
27803;DHT22;15182;48.174;11.562;2023-06-10T07:46:06;25.70;77.00
27803;DHT22;15182;48.174;11.562;2023-06-10T07:48:35;25.80;77.70
27803;DHT22;15182;48.174;11.562;2023-06-10T07:51:03;25.80;77.00
27803;DHT22;15182;48.174;11.562;2023-06-10T07:53:31;25.90;76.70
27803;DHT22;15182;48.174;11.562;2023-06-10T07:55:59;26.00;76.40
27803;DHT22;15182;48.174;11.562;2023-06-10T07:58:26;26.10;76.20
27803;DHT22;15182;48.174;11.562;2023-06-10T08:00:54;26.10;76.30
27803;DHT22;15182;48.174;11.562;2023-06-10T08:03:22;26.20;75.80
27803;DHT22;15182;48.174;11.562;2023-06-10T08:05:51;26.30;75.80
27803;DHT22;15182;48.174;11.562;2023-06-10T08:08:19;26.40;75.60
27803;DHT22;15182;48.174;11.562;2023-06-10T08:10:47;26.40;76.20
27803;DHT22;15182;48.174;11.562;2023-06-10T08:13:15;26.50;75.70
27803;DHT22;15182;48.174;11.562;2023-06-10T08:15:43;26.60;74.70
27803;DHT22;15182;48.174;11.562;2023-06-10T08:18:11;26.60;74.50
27803;DHT22;15182;48.174;11.562;2023-06-10T08:20:39;26.70;74.60
27803;DHT22;15182;48.174;11.562;2023-06-10T08:23:08;26.70;74.30
27803;DHT22;15182;48.174;11.562;2023-06-10T08:25:36;26.80;74.20
27803;DHT22;15182;48.174;11.562;2023-06-10T08:28:03;26.80;74.40
27803;DHT22;15182;48.174;11.562;2023-06-10T08:30:31;26.90;74.00
27803;DHT22;15182;48.174;11.562;2023-06-10T08:33:00;26.90;74.20
27803;DHT22;15182;48.174;11.562;2023-06-10T08:35:27;26.90;73.80
27803;DHT22;15182;48.174;11.562;2023-06-10T08:37:56;27.00;73.70
27803;DHT22;15182;48.174;11.562;2023-06-10T08:40:25;27.00;73.40
27803;DHT22;15182;48.174;11.562;2023-06-10T08:42:59;27.00;73.70
27803;DHT22;15182;48.174;11.562;2023-06-10T08:45:30;27.00;73.00
27803;DHT22;15182;48.174;11.562;2023-06-10T08:47:59;27.10;73.20
27803;DHT22;15182;48.174;11.562;2023-06-10T08:50:28;27.20;74.00
27803;DHT22;15182;48.174;11.562;2023-06-10T08:52:58;27.30;73.20
27803;DHT22;15182;48.174;11.562;2023-06-10T08:55:30;27.40;73.20
27803;DHT22;15182;48.174;11.562;2023-06-10T08:58:00;27.50;72.90
27803;DHT22;15182;48.174;11.562;2023-06-10T09:00:29;27.50;73.00
27803;DHT22;15182;48.174;11.562;2023-06-10T09:02:58;27.70;73.80
27803;DHT22;15182;48.174;11.562;2023-06-10T09:05:27;27.80;72.90
27803;DHT22;15182;48.174;11.562;2023-06-10T09:07:57;27.90;72.60
27803;DHT22;15182;48.174;11.562;2023-06-10T09:10:25;28.00;72.30
27803;DHT22;15182;48.174;11.562;2023-06-10T09:12:55;28.10;72.20
27803;DHT22;15182;48.174;11.562;2023-06-10T09:15:23;28.20;72.00
27803;DHT22;15182;48.174;11.562;2023-06-10T09:17:51;28.30;72.00
27803;DHT22;15182;48.174;11.562;2023-06-10T09:20:19;28.40;71.30
27803;DHT22;15182;48.174;11.562;2023-06-10T09:22:47;28.50;71.00
27803;DHT22;15182;48.174;11.562;2023-06-10T09:25:14;28.50;71.90
27803;DHT22;15182;48.174;11.562;2023-06-10T09:27:46;28.60;70.70
27803;DHT22;15182;48.174;11.562;2023-06-10T09:30:28;28.60;70.20
27803;DHT22;15182;48.174;11.562;2023-06-10T09:32:57;28.60;70.40
27803;DHT22;15182;48.174;11.562;2023-06-10T09:35:27;28.50;70.30
27803;DHT22;15182;48.174;11.562;2023-06-10T09:37:57;28.40;69.60
27803;DHT22;15182;48.174;11.562;2023-06-10T09:40:26;28.40;69.90
27803;DHT22;15182;48.174;11.562;2023-06-10T09:42:57;28.30;70.00
27803;DHT22;15182;48.174;11.562;2023-06-10T09:45:29;28.30;70.30
27803;DHT22;15182;48.174;11.562;2023-06-10T09:48:00;28.40;70.00
27803;DHT22;15182;48.174;11.562;2023-06-10T09:50:33;28.60;70.40
27803;DHT22;15182;48.174;11.562;2023-06-10T09:53:01;28.70;69.70
27803;DHT22;15182;48.174;11.562;2023-06-10T09:55:33;28.80;68.90
27803;DHT22;15182;48.174;11.562;2023-06-10T09:58:03;28.90;68.30
27803;DHT22;15182;48.174;11.562;2023-06-10T10:00:32;28.90;68.80
27803;DHT22;15182;48.174;11.562;2023-06-10T10:03:01;29.00;69.20
27803;DHT22;15182;48.174;11.562;2023-06-10T10:05:29;29.10;69.00
27803;DHT22;15182;48.174;11.562;2023-06-10T10:07:57;29.20;68.20
27803;DHT22;15182;48.174;11.562;2023-06-10T10:10:28;29.30;67.40
27803;DHT22;15182;48.174;11.562;2023-06-10T10:12:56;29.30;66.90
27803;DHT22;15182;48.174;11.562;2023-06-10T10:15:31;29.30;67.60
27803;DHT22;15182;48.174;11.562;2023-06-10T10:18:06;29.30;67.00
27803;DHT22;15182;48.174;11.562;2023-06-10T10:20:39;29.30;67.20
27803;DHT22;15182;48.174;11.562;2023-06-10T10:23:14;29.40;67.00
27803;DHT22;15182;48.174;11.562;2023-06-10T10:25:51;29.50;67.30
27803;DHT22;15182;48.174;11.562;2023-06-10T10:28:21;29.60;66.90
27803;DHT22;15182;48.174;11.562;2023-06-10T10:30:59;29.80;66.50
27803;DHT22;15182;48.174;11.562;2023-06-10T10:33:39;29.90;65.80
27803;DHT22;15182;48.174;11.562;2023-06-10T10:36:10;30.10;65.70
27803;DHT22;15182;48.174;11.562;2023-06-10T10:38:38;30.10;65.40
27803;DHT22;15182;48.174;11.562;2023-06-10T10:41:06;30.20;65.80
27803;DHT22;15182;48.174;11.562;2023-06-10T10:43:34;30.20;65.10
27803;DHT22;15182;48.174;11.562;2023-06-10T10:46:12;30.40;65.00
27803;DHT22;15182;48.174;11.562;2023-06-10T10:48:41;30.50;64.30
27803;DHT22;15182;48.174;11.562;2023-06-10T10:51:11;30.60;63.70
27803;DHT22;15182;48.174;11.562;2023-06-10T10:53:39;30.70;63.40
27803;DHT22;15182;48.174;11.562;2023-06-10T10:56:15;30.90;64.10
27803;DHT22;15182;48.174;11.562;2023-06-10T10:59:03;30.90;64.30
27803;DHT22;15182;48.174;11.562;2023-06-10T11:01:41;30.90;62.70
27803;DHT22;15182;48.174;11.562;2023-06-10T11:04:12;31.10;62.70
27803;DHT22;15182;48.174;11.562;2023-06-10T11:06:52;31.10;64.20
27803;DHT22;15182;48.174;11.562;2023-06-10T11:09:27;31.10;62.10
27803;DHT22;15182;48.174;11.562;2023-06-10T11:11:57;31.10;62.80
27803;DHT22;15182;48.174;11.562;2023-06-10T11:14:27;31.10;62.50
27803;DHT22;15182;48.174;11.562;2023-06-10T11:16:58;31.10;62.70
27803;DHT22;15182;48.174;11.562;2023-06-10T11:19:33;31.10;61.90
27803;DHT22;15182;48.174;11.562;2023-06-10T11:22:03;31.10;62.10
27803;DHT22;15182;48.174;11.562;2023-06-10T11:24:32;31.10;61.90
27803;DHT22;15182;48.174;11.562;2023-06-10T11:27:17;31.20;63.00
27803;DHT22;15182;48.174;11.562;2023-06-10T11:29:58;31.20;61.80
27803;DHT22;15182;48.174;11.562;2023-06-10T11:32:30;31.30;61.90
27803;DHT22;15182;48.174;11.562;2023-06-10T11:34:59;31.30;61.70
27803;DHT22;15182;48.174;11.562;2023-06-10T11:37:27;31.30;61.30
27803;DHT22;15182;48.174;11.562;2023-06-10T11:39:55;31.20;61.10
27803;DHT22;15182;48.174;11.562;2023-06-10T11:42:23;31.10;61.10
27803;DHT22;15182;48.174;11.562;2023-06-10T11:44:52;31.00;61.50
27803;DHT22;15182;48.174;11.562;2023-06-10T11:47:21;30.90;61.80
27803;DHT22;15182;48.174;11.562;2023-06-10T11:49:57;30.90;62.20
27803;DHT22;15182;48.174;11.562;2023-06-10T11:52:26;30.90;62.10
27803;DHT22;15182;48.174;11.562;2023-06-10T11:54:55;30.90;61.70
27803;DHT22;15182;48.174;11.562;2023-06-10T11:57:22;31.00;61.30
27803;DHT22;15182;48.174;11.562;2023-06-10T11:59:50;31.10;61.60
27803;DHT22;15182;48.174;11.562;2023-06-10T12:02:18;31.20;61.50
27803;DHT22;15182;48.174;11.562;2023-06-10T12:04:46;31.30;61.70
27803;DHT22;15182;48.174;11.562;2023-06-10T12:07:19;31.40;62.60
27803;DHT22;15182;48.174;11.562;2023-06-10T12:09:58;31.40;62.00
27803;DHT22;15182;48.174;11.562;2023-06-10T12:12:27;31.60;61.70
27803;DHT22;15182;48.174;11.562;2023-06-10T12:14:55;31.60;61.40
27803;DHT22;15182;48.174;11.562;2023-06-10T12:17:35;31.60;60.70
27803;DHT22;15182;48.174;11.562;2023-06-10T12:20:06;31.60;61.60
27803;DHT22;15182;48.174;11.562;2023-06-10T12:22:39;31.60;60.90
27803;DHT22;15182;48.174;11.562;2023-06-10T12:25:08;31.60;61.00
27803;DHT22;15182;48.174;11.562;2023-06-10T12:27:38;31.70;62.00
27803;DHT22;15182;48.174;11.562;2023-06-10T12:30:07;31.70;61.00
27803;DHT22;15182;48.174;11.562;2023-06-10T12:32:37;31.80;60.40
27803;DHT22;15182;48.174;11.562;2023-06-10T12:35:07;31.80;61.00
27803;DHT22;15182;48.174;11.562;2023-06-10T12:37:35;31.70;59.90
27803;DHT22;15182;48.174;11.562;2023-06-10T12:40:06;31.70;60.00
27803;DHT22;15182;48.174;11.562;2023-06-10T12:42:35;31.60;59.80
27803;DHT22;15182;48.174;11.562;2023-06-10T12:45:05;31.60;59.60
27803;DHT22;15182;48.174;11.562;2023-06-10T12:47:36;31.60;60.10
27803;DHT22;15182;48.174;11.562;2023-06-10T12:50:06;31.60;59.90
27803;DHT22;15182;48.174;11.562;2023-06-10T12:52:35;31.70;60.00
27803;DHT22;15182;48.174;11.562;2023-06-10T12:55:04;31.70;59.70
27803;DHT22;15182;48.174;11.562;2023-06-10T12:57:33;31.80;59.70
27803;DHT22;15182;48.174;11.562;2023-06-10T13:00:00;31.80;59.10
27803;DHT22;15182;48.174;11.562;2023-06-10T13:02:34;31.90;59.60
27803;DHT22;15182;48.174;11.562;2023-06-10T13:05:02;31.90;60.20
27803;DHT22;15182;48.174;11.562;2023-06-10T13:07:30;32.00;60.40
27803;DHT22;15182;48.174;11.562;2023-06-10T13:09:58;32.00;60.60
27803;DHT22;15182;48.174;11.562;2023-06-10T13:12:28;31.90;60.80
27803;DHT22;15182;48.174;11.562;2023-06-10T13:14:56;31.80;61.00
27803;DHT22;15182;48.174;11.562;2023-06-10T13:17:24;31.70;62.20
27803;DHT22;15182;48.174;11.562;2023-06-10T13:19:52;31.70;61.20
27803;DHT22;15182;48.174;11.562;2023-06-10T13:22:20;31.70;60.80
27803;DHT22;15182;48.174;11.562;2023-06-10T13:24:50;31.60;60.90
27803;DHT22;15182;48.174;11.562;2023-06-10T13:27:18;31.50;61.10
27803;DHT22;15182;48.174;11.562;2023-06-10T13:29:47;31.40;62.10
27803;DHT22;15182;48.174;11.562;2023-06-10T13:32:15;31.40;61.20
27803;DHT22;15182;48.174;11.562;2023-06-10T13:34:42;31.40;61.20
27803;DHT22;15182;48.174;11.562;2023-06-10T13:37:10;31.40;62.00
27803;DHT22;15182;48.174;11.562;2023-06-10T13:39:38;31.40;61.30
27803;DHT22;15182;48.174;11.562;2023-06-10T13:42:07;31.50;61.00
27803;DHT22;15182;48.174;11.562;2023-06-10T13:44:35;31.60;60.90
27803;DHT22;15182;48.174;11.562;2023-06-10T13:47:05;31.60;60.50
27803;DHT22;15182;48.174;11.562;2023-06-10T13:49:33;31.60;60.10
27803;DHT22;15182;48.174;11.562;2023-06-10T13:52:01;31.60;60.30
27803;DHT22;15182;48.174;11.562;2023-06-10T13:54:28;31.60;59.90
27803;DHT22;15182;48.174;11.562;2023-06-10T13:56:56;31.60;59.80
27803;DHT22;15182;48.174;11.562;2023-06-10T13:59:24;31.60;59.70
27803;DHT22;15182;48.174;11.562;2023-06-10T14:01:52;31.60;60.00
27803;DHT22;15182;48.174;11.562;2023-06-10T14:04:21;31.60;60.00
27803;DHT22;15182;48.174;11.562;2023-06-10T14:06:49;31.60;59.70
27803;DHT22;15182;48.174;11.562;2023-06-10T14:09:17;31.60;59.80
27803;DHT22;15182;48.174;11.562;2023-06-10T14:11:45;31.60;60.60
27803;DHT22;15182;48.174;11.562;2023-06-10T14:14:13;31.60;59.70
27803;DHT22;15182;48.174;11.562;2023-06-10T14:16:41;31.50;59.70
27803;DHT22;15182;48.174;11.562;2023-06-10T14:19:09;31.40;59.50
27803;DHT22;15182;48.174;11.562;2023-06-10T14:21:38;31.40;59.60
27803;DHT22;15182;48.174;11.562;2023-06-10T14:24:06;31.30;59.90
27803;DHT22;15182;48.174;11.562;2023-06-10T14:26:34;31.20;60.20
27803;DHT22;15182;48.174;11.562;2023-06-10T14:29:02;31.10;60.30
27803;DHT22;15182;48.174;11.562;2023-06-10T14:31:29;31.10;61.40
27803;DHT22;15182;48.174;11.562;2023-06-10T14:33:57;31.00;60.00
27803;DHT22;15182;48.174;11.562;2023-06-10T14:36:25;31.00;59.90
27803;DHT22;15182;48.174;11.562;2023-06-10T14:38:54;30.90;59.80
27803;DHT22;15182;48.174;11.562;2023-06-10T14:41:23;30.80;59.60
27803;DHT22;15182;48.174;11.562;2023-06-10T14:43:51;30.70;59.40
27803;DHT22;15182;48.174;11.562;2023-06-10T14:46:18;30.60;59.60
27803;DHT22;15182;48.174;11.562;2023-06-10T14:48:47;30.60;59.70
27803;DHT22;15182;48.174;11.562;2023-06-10T14:51:15;30.50;59.60
27803;DHT22;15182;48.174;11.562;2023-06-10T14:53:43;30.50;59.50
27803;DHT22;15182;48.174;11.562;2023-06-10T14:56:13;30.40;59.90
27803;DHT22;15182;48.174;11.562;2023-06-10T14:58:41;30.30;60.00
27803;DHT22;15182;48.174;11.562;2023-06-10T15:01:09;30.20;60.10
27803;DHT22;15182;48.174;11.562;2023-06-10T15:03:36;30.20;60.20
27803;DHT22;15182;48.174;11.562;2023-06-10T15:06:04;30.20;60.40
27803;DHT22;15182;48.174;11.562;2023-06-10T15:08:32;30.20;60.50
27803;DHT22;15182;48.174;11.562;2023-06-10T15:11:00;30.20;60.80
27803;DHT22;15182;48.174;11.562;2023-06-10T15:13:30;30.20;61.30
27803;DHT22;15182;48.174;11.562;2023-06-10T15:15:57;30.20;61.80
27803;DHT22;15182;48.174;11.562;2023-06-10T15:18:25;30.20;61.70
27803;DHT22;15182;48.174;11.562;2023-06-10T15:20:53;30.20;61.60
27803;DHT22;15182;48.174;11.562;2023-06-10T15:23:21;30.20;61.70
27803;DHT22;15182;48.174;11.562;2023-06-10T15:25:48;30.10;61.40
27803;DHT22;15182;48.174;11.562;2023-06-10T15:28:16;30.10;61.30